This is the latest recevied weather packets stored in our database for station/object SP3ZBZ-13. If no packets are shown the sender has not sent any weather packets the latest 10 day(s).
| Time | Temp. | Humidity | Pressure | Rain* | Wind** | Luminosity | Snow |
|---|---|---|---|---|---|---|---|
| 1777747478 | 19.44° C | 40% | 1013.2 hPa | - | - | - | - |
| 1777746577 | 20.56° C | 37% | 1013.1 hPa | - | - | 1 W/m² | - |
| 1777745676 | 21.67° C | 35% | 1013.1 hPa | - | - | 4 W/m² | - |
| 1777744776 | 22.78° C | 33% | 1013.1 hPa | - | - | 12 W/m² | - |
| 1777743875 | 23.89° C | 32% | 1013.2 hPa | - | - | 22 W/m² | - |
| 1777742973 | 24.44° C | 31% | 1013.2 hPa | - | - | 32 W/m² | - |
| 1777742073 | 25° C | 30% | 1013.3 hPa | - | - | 42 W/m² | - |
| 1777741172 | 25° C | 29% | 1013.2 hPa | - | - | 54 W/m² | - |
| 1777740271 | 25° C | 29% | 1013.4 hPa | - | - | 81 W/m² | - |
| 1777739370 | 25° C | 29% | 1013.6 hPa | - | - | 117 W/m² | - |
| 1777738469 | 25° C | 28% | 1013.8 hPa | - | - | 149 W/m² | - |
| 1777737569 | 25° C | 29% | 1014.1 hPa | - | - | 184 W/m² | - |
| 1777736668 | 25.56° C | 27% | 1014.3 hPa | - | - | 221 W/m² | - |
| 1777735767 | 25.56° C | 28% | 1014.5 hPa | - | - | 259 W/m² | - |
| 1777734866 | 25.56° C | 28% | 1014.6 hPa | - | - | 296 W/m² | - |
| 1777733964 | 26.11° C | 26% | 1014.8 hPa | - | - | 335 W/m² | - |
| 1777733064 | 25.56° C | 26% | 1015 hPa | - | - | 370 W/m² | - |
| 1777732163 | 26.11° C | 26% | 1015.2 hPa | - | - | 410 W/m² | - |
| 1777731262 | 25.56° C | 24% | 1015.3 hPa | - | - | 441 W/m² | - |
| 1777730361 | 25° C | 26% | 1015.5 hPa | - | - | 469 W/m² | - |
| 1777729460 | 25° C | 24% | 1015.6 hPa | - | - | 503 W/m² | - |
| 1777728559 | 25° C | 25% | 1015.8 hPa | - | - | 536 W/m² | - |
| 1777727658 | 25° C | 27% | 1015.9 hPa | - | - | 566 W/m² | - |
| 1777726757 | 24.44° C | 28% | 1016.2 hPa | - | - | 587 W/m² | - |
| 1777725856 | 24.44° C | 28% | 1016.3 hPa | - | - | 607 W/m² | - |
* Rain since midnight (hover to see other rain measurements)
** Current wind speed in m/s (hover to see current wind gust speed)